createdAt,value
2023-04-15T00:01:01.429Z,0.30
2023-04-15T00:04:23.763Z,0.30
2023-04-15T00:07:47.128Z,0.20
2023-04-15T00:11:09.444Z,0.25
2023-04-15T00:14:32.109Z,0.40
2023-04-15T00:17:54.451Z,0.40
2023-04-15T00:21:16.715Z,0.20
2023-04-15T00:24:39.802Z,0.25
2023-04-15T00:28:02.653Z,0.30
2023-04-15T00:31:25.004Z,0.40
2023-04-15T00:34:47.306Z,0.40
2023-04-15T00:38:09.685Z,0.30
2023-04-15T00:41:31.960Z,0.20
2023-04-15T00:44:54.356Z,0.45
2023-04-15T00:48:18.252Z,0.20
2023-04-15T00:51:40.632Z,0.30
2023-04-15T00:55:04.752Z,0.10
2023-04-15T00:58:28.182Z,0.20
2023-04-15T01:01:51.838Z,0.15
2023-04-15T01:05:17.232Z,0.20
2023-04-15T01:12:02.579Z,0.30
2023-04-15T01:15:25.802Z,0.20
2023-04-15T01:18:48.686Z,0.10
2023-04-15T01:22:11.336Z,0.30
2023-04-15T01:25:34.809Z,0.40
2023-04-15T01:28:57.582Z,0.20
2023-04-15T01:32:20.390Z,0.20
2023-04-15T01:35:44.290Z,0.20
2023-04-15T01:39:06.765Z,0.30
2023-04-15T01:42:29.045Z,0.20
2023-04-15T01:45:51.736Z,0.20
2023-04-15T01:49:13.917Z,0.25
2023-04-15T01:52:36.186Z,0.20
2023-04-15T01:55:58.449Z,0.10
2023-04-15T01:59:20.954Z,0.20
2023-04-15T02:02:43.637Z,0.20
2023-04-15T02:06:06.229Z,0.40
2023-04-15T02:09:28.470Z,0.20
2023-04-15T02:12:50.788Z,0.30
2023-04-15T02:16:17.700Z,0.22
2023-04-15T02:19:41.218Z,0.10
2023-04-15T02:23:07.309Z,0.13
2023-04-15T02:26:32.641Z,0.10
2023-04-15T02:29:55.097Z,0.20
2023-04-15T02:33:17.532Z,0.30
2023-04-15T02:36:40.675Z,0.10
2023-04-15T02:40:03.335Z,0.17
2023-04-15T02:43:25.580Z,0.20
2023-04-15T02:46:50.921Z,0.30
2023-04-15T02:53:37.299Z,0.17
2023-04-15T02:56:59.878Z,0.30
2023-04-15T03:00:22.452Z,0.20
2023-04-15T03:03:45.156Z,0.20
2023-04-15T03:07:07.642Z,0.30
2023-04-15T03:10:29.944Z,0.40
2023-04-15T03:13:52.203Z,0.20
2023-04-15T03:17:25.957Z,0.30
2023-04-15T03:20:48.618Z,0.28
2023-04-15T03:24:11.179Z,0.20
2023-04-15T03:27:33.629Z,0.30
2023-04-15T03:30:59.346Z,0.20
2023-04-15T03:34:21.843Z,1.15
2023-04-15T03:37:44.086Z,0.20
2023-04-15T03:41:06.609Z,0.50
2023-04-15T03:44:28.918Z,0.30
2023-04-15T03:47:51.585Z,0.10
2023-04-15T03:51:13.930Z,0.40
2023-04-15T03:54:36.262Z,0.40
2023-04-15T03:57:58.554Z,0.38
2023-04-15T04:01:20.835Z,0.20
2023-04-15T04:04:43.857Z,0.40
2023-04-15T04:08:06.419Z,0.30
2023-04-15T04:11:28.687Z,0.28
2023-04-15T04:14:51.443Z,0.30
2023-04-15T04:18:13.720Z,0.20
2023-04-15T04:21:36.597Z,0.40
2023-04-15T04:24:59.964Z,0.35
2023-04-15T04:28:22.466Z,0.35
2023-04-15T04:31:44.828Z,0.40
2023-04-15T04:35:07.457Z,0.20
2023-04-15T04:38:29.703Z,0.30
2023-04-15T04:41:54.754Z,0.17
2023-04-15T04:45:16.964Z,0.40
2023-04-15T04:48:39.434Z,0.30
2023-04-15T04:52:01.797Z,0.30
2023-04-15T04:55:24.111Z,0.30
2023-04-15T04:58:46.710Z,0.20
2023-04-15T05:02:09.126Z,0.20
2023-04-15T05:05:31.474Z,0.43
2023-04-15T05:08:53.677Z,1.65
2023-04-15T05:12:15.914Z,0.30
2023-04-15T05:15:39.886Z,0.57
2023-04-15T05:19:02.585Z,0.40
2023-04-15T05:22:25.285Z,0.40
2023-04-15T05:25:47.523Z,0.52
2023-04-15T05:29:09.919Z,0.40
2023-04-15T05:32:32.204Z,0.20
2023-04-15T05:35:54.509Z,0.52
2023-04-15T05:39:16.879Z,0.40
2023-04-15T05:42:39.137Z,0.22
2023-04-15T05:46:01.592Z,0.32
2023-04-15T05:49:23.992Z,0.30
2023-04-15T05:52:46.290Z,0.50
2023-04-15T05:56:08.682Z,0.40
2023-04-15T05:59:30.965Z,0.40
2023-04-15T06:02:53.812Z,0.45
2023-04-15T06:06:16.124Z,0.63
2023-04-15T06:09:38.360Z,0.63
2023-04-15T06:13:00.680Z,0.57
2023-04-15T06:16:23.455Z,0.50
2023-04-15T06:19:45.868Z,0.40
2023-04-15T06:23:08.127Z,0.60
2023-04-15T06:26:31.198Z,0.40
2023-04-15T06:29:53.471Z,0.40
2023-04-15T06:33:15.962Z,0.40
2023-04-15T06:36:38.214Z,0.32
2023-04-15T06:40:00.596Z,0.75
2023-04-15T06:43:22.907Z,0.50
2023-04-15T06:46:45.342Z,0.52
2023-04-15T06:50:09.304Z,0.40
2023-04-15T06:53:31.485Z,0.65
2023-04-15T06:56:53.743Z,0.70
2023-04-15T07:00:16.507Z,0.60
2023-04-15T07:03:38.728Z,0.57
2023-04-15T07:07:02.547Z,0.60
2023-04-15T07:10:25.746Z,1.08
2023-04-15T07:13:48.068Z,0.38
2023-04-15T07:17:10.541Z,1.00
2023-04-15T07:20:32.808Z,0.70
2023-04-15T07:23:55.278Z,0.90
2023-04-15T07:27:17.991Z,0.50
2023-04-15T07:30:40.310Z,0.45
2023-04-15T07:34:03.445Z,0.75
2023-04-15T07:37:25.751Z,0.50
2023-04-15T07:40:48.520Z,0.70
2023-04-15T07:44:11.302Z,0.30
2023-04-15T07:47:33.584Z,0.65
2023-04-15T07:50:55.993Z,0.65
2023-04-15T07:54:18.208Z,0.60
2023-04-15T07:57:40.381Z,0.70
2023-04-15T08:01:02.809Z,0.75
2023-04-15T08:04:25.484Z,0.60
2023-04-15T08:07:48.027Z,0.60
2023-04-15T08:11:10.291Z,0.40
2023-04-15T08:14:32.510Z,1.08
2023-04-15T08:17:54.776Z,0.90
2023-04-15T08:21:18.688Z,0.80
2023-04-15T08:24:41.274Z,0.57
2023-04-15T08:28:07.155Z,0.60
2023-04-15T08:31:30.803Z,0.98
2023-04-15T08:34:53.366Z,0.68
2023-04-15T08:38:15.726Z,0.68
2023-04-15T08:41:45.499Z,0.52
2023-04-15T08:45:11.218Z,0.40
2023-04-15T08:48:35.762Z,0.57
2023-04-15T08:52:01.865Z,0.43
2023-04-15T08:55:28.622Z,0.60
2023-04-15T08:58:51.313Z,0.93
2023-04-15T09:02:13.940Z,0.75
2023-04-15T09:05:37.240Z,0.70
2023-04-15T09:08:59.734Z,0.65
2023-04-15T09:12:22.193Z,0.50
2023-04-15T09:15:44.451Z,0.90
2023-04-15T09:19:23.915Z,0.80
2023-04-15T09:22:48.790Z,0.85
2023-04-15T09:26:11.365Z,1.20
2023-04-15T09:29:33.850Z,1.40
2023-04-15T09:32:57.155Z,1.45
2023-04-15T09:36:19.492Z,1.60
2023-04-15T09:39:52.479Z,1.88
2023-04-15T09:43:16.682Z,2.13
2023-04-15T09:46:46.243Z,1.35
2023-04-15T09:50:08.952Z,1.25
2023-04-15T09:53:34.902Z,1.00
2023-04-15T09:56:57.478Z,1.20
2023-04-15T10:00:19.879Z,1.42
2023-04-15T10:03:42.749Z,0.90
2023-04-15T10:07:06.357Z,0.90
2023-04-15T10:10:29.055Z,1.00
2023-04-15T10:13:52.325Z,0.93
2023-04-15T10:17:17.945Z,0.90
2023-04-15T10:20:41.337Z,0.68
2023-04-15T10:24:04.992Z,0.80
2023-04-15T10:27:27.930Z,0.90
2023-04-15T10:30:50.488Z,0.73
2023-04-15T10:34:13.635Z,0.73
2023-04-15T10:37:37.673Z,0.50
2023-04-15T10:41:21.904Z,0.70
2023-04-15T10:44:53.279Z,0.50
2023-04-15T10:48:16.793Z,0.80
2023-04-15T10:51:44.354Z,0.40
2023-04-15T10:55:23.282Z,0.52
2023-04-15T10:58:45.906Z,0.70
2023-04-15T11:02:09.037Z,0.70
2023-04-15T11:05:49.889Z,0.47
2023-04-15T11:09:33.072Z,0.30
2023-04-15T11:13:11.456Z,0.60
2023-04-15T11:16:44.951Z,0.50
2023-04-15T11:20:09.041Z,0.40
2023-04-15T11:23:36.772Z,0.68
2023-04-15T11:26:59.877Z,0.40
2023-04-15T11:30:24.233Z,0.32
2023-04-15T11:33:56.965Z,0.40
2023-04-15T11:37:28.685Z,0.47
2023-04-15T11:40:52.269Z,0.70
2023-04-15T11:44:18.685Z,0.40
2023-04-15T11:47:42.791Z,0.45
2023-04-15T11:51:06.961Z,0.50
2023-04-15T11:54:29.284Z,0.50
2023-04-15T11:58:18.611Z,0.47
2023-04-15T12:01:43.844Z,0.50
2023-04-15T12:08:51.491Z,0.30
2023-04-15T12:12:13.823Z,0.40
2023-04-15T12:15:39.332Z,0.40
2023-04-15T12:19:06.177Z,0.50
2023-04-15T12:22:29.555Z,2.72
2023-04-15T12:25:52.702Z,1.38
2023-04-15T12:29:17.298Z,0.90
2023-04-15T12:32:42.118Z,0.40
2023-04-15T12:36:05.905Z,1.05
2023-04-15T12:39:31.205Z,1.33
2023-04-15T12:42:53.525Z,0.70
2023-04-15T12:46:16.227Z,0.47
2023-04-15T12:49:39.503Z,1.10
2023-04-15T12:53:03.648Z,0.60
2023-04-15T12:56:26.046Z,0.80
2023-04-15T12:59:48.295Z,0.50
2023-04-15T13:03:10.837Z,0.35
2023-04-15T13:06:33.566Z,0.65
2023-04-15T13:09:55.854Z,0.85
2023-04-15T13:13:18.140Z,0.68
2023-04-15T13:16:40.898Z,0.52
2023-04-15T13:20:03.408Z,0.68
2023-04-15T13:23:25.850Z,0.52
2023-04-15T13:26:50.138Z,0.55
2023-04-15T13:30:13.242Z,0.82
2023-04-15T13:33:35.552Z,0.85
2023-04-15T13:36:57.834Z,1.00
2023-04-15T13:40:20.506Z,0.85
2023-04-15T13:43:42.768Z,0.73
2023-04-15T13:47:05.028Z,0.90
2023-04-15T13:50:28.137Z,0.80
2023-04-15T13:53:50.465Z,1.00
2023-04-15T13:57:12.687Z,0.80
2023-04-15T14:00:35.098Z,1.10
2023-04-15T14:03:57.460Z,0.80
2023-04-15T14:07:19.747Z,0.85
2023-04-15T14:10:44.234Z,0.70
2023-04-15T14:14:06.684Z,0.60
2023-04-15T14:17:29.108Z,0.70
2023-04-15T14:20:51.828Z,0.70
2023-04-15T14:24:14.090Z,0.80
2023-04-15T14:27:36.497Z,0.50
2023-04-15T14:30:58.768Z,0.47
2023-04-15T14:34:25.097Z,2.65
2023-04-15T14:37:47.310Z,0.47
2023-04-15T14:41:10.075Z,0.40
2023-04-15T14:44:33.516Z,0.40
2023-04-15T14:47:56.069Z,0.35
2023-04-15T14:51:18.806Z,0.40
2023-04-15T14:54:41.182Z,0.40
2023-04-15T14:58:04.387Z,0.40
2023-04-15T15:01:26.832Z,0.40
2023-04-15T15:04:49.212Z,0.28
2023-04-15T15:08:12.145Z,0.32
2023-04-15T15:11:34.379Z,0.55
2023-04-15T15:14:56.714Z,0.63
2023-04-15T15:18:19.635Z,0.43
2023-04-15T15:21:42.010Z,0.50
2023-04-15T15:25:04.821Z,0.77
2023-04-15T15:28:27.242Z,0.55
2023-04-15T15:31:50.062Z,0.47
2023-04-15T15:35:12.407Z,0.80
2023-04-15T15:38:34.699Z,0.60
2023-04-15T15:41:56.990Z,0.50
2023-04-15T15:45:19.240Z,0.30
2023-04-15T15:48:41.518Z,0.50
2023-04-15T15:52:03.759Z,0.60
2023-04-15T15:55:27.230Z,0.60
2023-04-15T15:58:49.468Z,0.40
2023-04-15T16:02:13.133Z,0.70
2023-04-15T16:05:36.220Z,0.50
2023-04-15T16:08:58.433Z,0.70
2023-04-15T16:12:20.823Z,0.50
2023-04-15T16:15:43.100Z,0.63
2023-04-15T16:19:05.706Z,0.40
2023-04-15T16:22:28.233Z,0.50
2023-04-15T16:25:50.855Z,0.60
2023-04-15T16:29:13.315Z,0.43
2023-04-15T16:32:36.110Z,0.88
2023-04-15T16:35:58.364Z,1.08
2023-04-15T16:39:20.786Z,1.25
2023-04-15T16:42:43.747Z,1.95
2023-04-15T16:46:06.240Z,1.80
2023-04-15T16:49:29.210Z,1.25
2023-04-15T16:52:51.361Z,2.13
2023-04-15T16:56:13.674Z,2.90
2023-04-15T16:59:36.008Z,2.42
2023-04-15T17:02:59.131Z,2.75
2023-04-15T17:06:21.794Z,2.78
2023-04-15T17:09:44.589Z,2.92
2023-04-15T17:13:07.125Z,2.10
2023-04-15T17:16:29.484Z,2.10
2023-04-15T17:19:51.802Z,2.65
2023-04-15T17:23:14.117Z,2.03
2023-04-15T17:26:36.403Z,2.33
2023-04-15T17:29:58.621Z,1.80
2023-04-15T17:33:57.661Z,2.20
2023-04-15T17:37:03.683Z,1.40
2023-04-15T17:40:26.067Z,1.40
2023-04-15T17:43:48.304Z,1.45
2023-04-15T17:47:10.585Z,1.40
2023-04-15T17:50:32.898Z,1.13
2023-04-15T17:53:55.264Z,1.40
2023-04-15T17:57:17.519Z,0.93
2023-04-15T18:00:39.803Z,1.17
2023-04-15T18:04:02.281Z,0.90
2023-04-15T18:07:24.904Z,1.05
2023-04-15T18:10:47.189Z,2.22
2023-04-15T18:14:09.939Z,5.95
2023-04-15T18:17:33.511Z,4.47
2023-04-15T18:20:55.794Z,4.63
2023-04-15T18:24:18.530Z,3.15
2023-04-15T18:27:40.830Z,2.55
2023-04-15T18:31:03.866Z,4.43
2023-04-15T18:34:26.397Z,3.90
2023-04-15T18:37:48.698Z,2.67
2023-04-15T18:41:11.094Z,3.30
2023-04-15T18:44:33.403Z,3.17
2023-04-15T18:47:55.755Z,2.67
2023-04-15T18:51:18.080Z,2.63
2023-04-15T18:54:40.397Z,2.80
2023-04-15T18:58:08.593Z,2.53
2023-04-15T19:01:32.022Z,2.08
2023-04-15T19:04:54.346Z,2.08
2023-04-15T19:08:16.687Z,1.70
2023-04-15T19:11:39.114Z,1.35
2023-04-15T19:15:01.389Z,1.60
2023-04-15T19:18:23.827Z,2.67
2023-04-15T19:21:49.677Z,1.50
2023-04-15T19:25:12.295Z,1.40
2023-04-15T19:28:34.654Z,1.25
2023-04-15T19:31:56.866Z,1.85
2023-04-15T19:35:19.103Z,0.90
2023-04-15T19:38:41.424Z,0.88
2023-04-15T19:42:03.960Z,0.85
2023-04-15T19:45:26.326Z,1.02
2023-04-15T19:48:48.704Z,1.00
2023-04-15T19:52:11.088Z,0.77
2023-04-15T19:55:33.292Z,1.10
2023-04-15T19:58:55.731Z,0.88
2023-04-15T20:02:18.091Z,0.90
2023-04-15T20:05:40.464Z,0.68
2023-04-15T20:09:02.807Z,0.73
2023-04-15T20:12:51.562Z,0.90
2023-04-15T20:16:08.636Z,0.70
2023-04-15T20:19:31.183Z,0.98
2023-04-15T20:22:53.494Z,0.57
2023-04-15T20:26:15.779Z,1.00
2023-04-15T20:29:38.020Z,0.60
2023-04-15T20:33:00.592Z,0.68
2023-04-15T20:36:22.916Z,0.70
2023-04-15T20:39:45.158Z,0.73
2023-04-15T20:43:07.671Z,0.77
2023-04-15T20:46:29.998Z,0.80
2023-04-15T20:49:52.267Z,0.88
2023-04-15T20:53:15.386Z,0.65
2023-04-15T20:56:37.597Z,0.80
2023-04-15T20:59:59.775Z,0.65
2023-04-15T21:03:22.292Z,0.70
2023-04-15T21:06:44.840Z,0.75
2023-04-15T21:10:07.416Z,0.70
2023-04-15T21:13:29.703Z,0.47
2023-04-15T21:16:51.943Z,0.95
2023-04-15T21:20:14.434Z,0.60
2023-04-15T21:23:36.714Z,0.70
2023-04-15T21:26:58.947Z,0.70
2023-04-15T21:30:21.210Z,0.70
2023-04-15T21:33:43.644Z,0.85
2023-04-15T21:37:05.988Z,0.80
2023-04-15T21:40:28.218Z,0.80
2023-04-15T21:43:50.410Z,0.73
2023-04-15T21:47:12.855Z,0.60
2023-04-15T21:50:36.828Z,0.70
2023-04-15T21:53:59.423Z,0.80
2023-04-15T21:57:21.846Z,0.50
2023-04-15T22:00:44.137Z,0.70
2023-04-15T22:04:07.567Z,0.60
2023-04-15T22:07:29.970Z,1.33
2023-04-15T22:10:52.216Z,0.60
2023-04-15T22:14:14.947Z,0.88
2023-04-15T22:17:37.302Z,0.52
2023-04-15T22:21:01.535Z,0.50
2023-04-15T22:24:33.198Z,0.90
2023-04-15T22:28:02.150Z,0.65
2023-04-15T22:31:24.469Z,0.77
2023-04-15T22:34:46.714Z,0.57
2023-04-15T22:38:08.977Z,0.60
2023-04-15T22:41:31.269Z,0.60
2023-04-15T22:44:53.622Z,0.70
2023-04-15T22:48:16.119Z,0.73
2023-04-15T22:51:38.559Z,0.77
2023-04-15T22:55:01.079Z,0.70
2023-04-15T22:58:23.566Z,0.60
2023-04-15T23:01:46.094Z,0.50
2023-04-15T23:05:12.713Z,0.60
2023-04-15T23:08:36.313Z,0.50
2023-04-15T23:11:58.559Z,0.68
2023-04-15T23:15:21.034Z,0.60
2023-04-15T23:18:43.310Z,0.77
2023-04-15T23:22:07.070Z,0.85
2023-04-15T23:25:29.352Z,0.70
2023-04-15T23:28:51.534Z,0.70
2023-04-15T23:32:13.803Z,0.80
2023-04-15T23:35:35.990Z,0.70
2023-04-15T23:38:58.206Z,0.47
2023-04-15T23:42:21.833Z,0.50
2023-04-15T23:45:44.153Z,0.70
2023-04-15T23:49:06.436Z,0.73
2023-04-15T23:52:28.734Z,0.68
2023-04-15T23:55:51.108Z,0.70
2023-04-15T23:59:13.356Z,0.80
